sensor_id;sensor_type;location;lat;lon;timestamp;temperature;humidity
58554;DHT22;48119;53.218;6.576;2022-09-24T00:01:51;15.80;97.40
58554;DHT22;48119;53.218;6.576;2022-09-24T00:04:17;15.80;97.50
58554;DHT22;48119;53.218;6.576;2022-09-24T00:06:45;15.80;97.50
58554;DHT22;48119;53.218;6.576;2022-09-24T00:09:14;15.80;97.60
58554;DHT22;48119;53.218;6.576;2022-09-24T00:11:40;15.80;97.60
58554;DHT22;48119;53.218;6.576;2022-09-24T00:14:07;15.80;97.60
58554;DHT22;48119;53.218;6.576;2022-09-24T00:16:33;15.80;97.70
58554;DHT22;48119;53.218;6.576;2022-09-24T00:19:00;15.80;97.70
58554;DHT22;48119;53.218;6.576;2022-09-24T00:21:32;15.80;97.70
58554;DHT22;48119;53.218;6.576;2022-09-24T00:24:06;15.80;97.80
58554;DHT22;48119;53.218;6.576;2022-09-24T00:26:31;15.80;97.80
58554;DHT22;48119;53.218;6.576;2022-09-24T00:29:18;15.80;97.90
58554;DHT22;48119;53.218;6.576;2022-09-24T00:31:44;15.80;97.90
58554;DHT22;48119;53.218;6.576;2022-09-24T00:34:12;15.80;97.90
58554;DHT22;48119;53.218;6.576;2022-09-24T00:36:38;15.80;97.90
58554;DHT22;48119;53.218;6.576;2022-09-24T00:39:05;15.80;98.00
58554;DHT22;48119;53.218;6.576;2022-09-24T00:41:34;15.80;98.00
58554;DHT22;48119;53.218;6.576;2022-09-24T00:44:00;15.80;98.10
58554;DHT22;48119;53.218;6.576;2022-09-24T00:46:39;15.80;98.10
58554;DHT22;48119;53.218;6.576;2022-09-24T00:49:15;15.80;98.10
58554;DHT22;48119;53.218;6.576;2022-09-24T00:51:44;15.80;98.10
58554;DHT22;48119;53.218;6.576;2022-09-24T00:54:16;15.80;98.10
58554;DHT22;48119;53.218;6.576;2022-09-24T00:56:44;15.80;98.20
58554;DHT22;48119;53.218;6.576;2022-09-24T00:59:12;15.80;98.20
58554;DHT22;48119;53.218;6.576;2022-09-24T01:01:42;15.80;98.20
58554;DHT22;48119;53.218;6.576;2022-09-24T01:04:09;15.80;98.20
58554;DHT22;48119;53.218;6.576;2022-09-24T01:06:35;15.80;98.30
58554;DHT22;48119;53.218;6.576;2022-09-24T01:09:03;15.80;98.30
58554;DHT22;48119;53.218;6.576;2022-09-24T01:15:02;15.80;98.50
58554;DHT22;48119;53.218;6.576;2022-09-24T01:17:57;15.80;98.70
58554;DHT22;48119;53.218;6.576;2022-09-24T01:20:39;15.80;98.70
58554;DHT22;48119;53.218;6.576;2022-09-24T01:31:33;15.80;99.00
58554;DHT22;48119;53.218;6.576;2022-09-24T01:34:02;15.80;99.10
58554;DHT22;48119;53.218;6.576;2022-09-24T01:36:33;15.80;99.10
58554;DHT22;48119;53.218;6.576;2022-09-24T01:39:00;15.80;99.10
58554;DHT22;48119;53.218;6.576;2022-09-24T01:41:27;15.80;99.20
58554;DHT22;48119;53.218;6.576;2022-09-24T01:43:53;15.70;99.20
58554;DHT22;48119;53.218;6.576;2022-09-24T01:46:20;15.70;99.30
58554;DHT22;48119;53.218;6.576;2022-09-24T01:48:47;15.80;99.30
58554;DHT22;48119;53.218;6.576;2022-09-24T01:51:24;15.80;99.40
58554;DHT22;48119;53.218;6.576;2022-09-24T01:54:04;15.80;99.40
58554;DHT22;48119;53.218;6.576;2022-09-24T01:57:02;15.80;99.50
58554;DHT22;48119;53.218;6.576;2022-09-24T01:59:31;15.80;99.50
58554;DHT22;48119;53.218;6.576;2022-09-24T02:02:04;15.70;99.50
58554;DHT22;48119;53.218;6.576;2022-09-24T02:04:35;15.70;99.60
58554;DHT22;48119;53.218;6.576;2022-09-24T02:07:16;15.70;99.60
58554;DHT22;48119;53.218;6.576;2022-09-24T02:09:43;15.80;99.60
58554;DHT22;48119;53.218;6.576;2022-09-24T02:12:13;15.70;99.60
58554;DHT22;48119;53.218;6.576;2022-09-24T02:14:51;15.70;99.70
58554;DHT22;48119;53.218;6.576;2022-09-24T02:17:23;15.70;99.80
58554;DHT22;48119;53.218;6.576;2022-09-24T02:19:53;15.70;99.80
58554;DHT22;48119;53.218;6.576;2022-09-24T02:22:21;15.70;99.90
58554;DHT22;48119;53.218;6.576;2022-09-24T02:24:57;15.80;99.90
58554;DHT22;48119;53.218;6.576;2022-09-24T02:27:25;15.80;99.90
58554;DHT22;48119;53.218;6.576;2022-09-24T02:29:56;15.70;99.90
58554;DHT22;48119;53.218;6.576;2022-09-24T02:32:26;15.70;99.90
58554;DHT22;48119;53.218;6.576;2022-09-24T02:34:56;15.80;99.90
58554;DHT22;48119;53.218;6.576;2022-09-24T02:37:24;15.70;99.90
58554;DHT22;48119;53.218;6.576;2022-09-24T02:39:50;15.80;99.90
58554;DHT22;48119;53.218;6.576;2022-09-24T02:42:17;15.80;99.90
58554;DHT22;48119;53.218;6.576;2022-09-24T02:44:43;15.80;99.90
58554;DHT22;48119;53.218;6.576;2022-09-24T02:47:10;15.70;99.90
58554;DHT22;48119;53.218;6.576;2022-09-24T02:49:35;15.80;99.90
58554;DHT22;48119;53.218;6.576;2022-09-24T02:52:02;15.80;99.90
58554;DHT22;48119;53.218;6.576;2022-09-24T02:54:27;15.80;99.90
58554;DHT22;48119;53.218;6.576;2022-09-24T02:56:53;15.80;99.90
58554;DHT22;48119;53.218;6.576;2022-09-24T02:59:19;15.80;99.90
58554;DHT22;48119;53.218;6.576;2022-09-24T03:01:45;15.80;99.90
58554;DHT22;48119;53.218;6.576;2022-09-24T03:04:12;15.80;99.90
58554;DHT22;48119;53.218;6.576;2022-09-24T03:06:38;15.80;99.90
58554;DHT22;48119;53.218;6.576;2022-09-24T03:09:04;15.80;99.90
58554;DHT22;48119;53.218;6.576;2022-09-24T03:11:31;15.80;99.90
58554;DHT22;48119;53.218;6.576;2022-09-24T03:13:58;15.80;99.90
58554;DHT22;48119;53.218;6.576;2022-09-24T03:16:24;15.80;99.90
58554;DHT22;48119;53.218;6.576;2022-09-24T03:18:50;15.80;99.90
58554;DHT22;48119;53.218;6.576;2022-09-24T03:21:18;15.80;99.90
58554;DHT22;48119;53.218;6.576;2022-09-24T03:23:44;15.80;99.90
58554;DHT22;48119;53.218;6.576;2022-09-24T03:26:11;15.80;99.90
58554;DHT22;48119;53.218;6.576;2022-09-24T03:28:37;15.80;99.90
58554;DHT22;48119;53.218;6.576;2022-09-24T03:31:03;15.80;99.90
58554;DHT22;48119;53.218;6.576;2022-09-24T03:33:41;15.80;99.90
58554;DHT22;48119;53.218;6.576;2022-09-24T03:36:16;15.80;99.90
58554;DHT22;48119;53.218;6.576;2022-09-24T03:38:43;15.80;99.90
58554;DHT22;48119;53.218;6.576;2022-09-24T03:41:11;15.80;99.90
58554;DHT22;48119;53.218;6.576;2022-09-24T03:43:37;15.80;99.90
58554;DHT22;48119;53.218;6.576;2022-09-24T03:46:04;15.80;99.90
58554;DHT22;48119;53.218;6.576;2022-09-24T03:48:35;15.80;99.90
58554;DHT22;48119;53.218;6.576;2022-09-24T03:51:03;15.80;99.90
58554;DHT22;48119;53.218;6.576;2022-09-24T03:53:29;15.80;99.90
58554;DHT22;48119;53.218;6.576;2022-09-24T03:55:57;15.80;99.90
58554;DHT22;48119;53.218;6.576;2022-09-24T03:58:24;15.80;99.90
58554;DHT22;48119;53.218;6.576;2022-09-24T04:00:52;15.80;99.90
58554;DHT22;48119;53.218;6.576;2022-09-24T04:03:18;15.80;99.90
58554;DHT22;48119;53.218;6.576;2022-09-24T04:05:45;15.80;99.90
58554;DHT22;48119;53.218;6.576;2022-09-24T04:08:11;15.80;99.90
58554;DHT22;48119;53.218;6.576;2022-09-24T04:10:37;15.80;99.90
58554;DHT22;48119;53.218;6.576;2022-09-24T04:13:02;15.90;99.90
58554;DHT22;48119;53.218;6.576;2022-09-24T04:15:28;15.90;99.90
58554;DHT22;48119;53.218;6.576;2022-09-24T04:17:55;15.90;99.90
58554;DHT22;48119;53.218;6.576;2022-09-24T04:20:24;15.90;99.90
58554;DHT22;48119;53.218;6.576;2022-09-24T04:22:54;15.90;99.90
58554;DHT22;48119;53.218;6.576;2022-09-24T04:25:21;15.90;99.90
58554;DHT22;48119;53.218;6.576;2022-09-24T04:27:56;15.90;99.90
58554;DHT22;48119;53.218;6.576;2022-09-24T04:30:22;15.90;99.90
58554;DHT22;48119;53.218;6.576;2022-09-24T04:32:49;15.90;99.90
58554;DHT22;48119;53.218;6.576;2022-09-24T04:35:18;15.90;99.90
58554;DHT22;48119;53.218;6.576;2022-09-24T04:37:44;15.90;99.90
58554;DHT22;48119;53.218;6.576;2022-09-24T04:40:11;15.90;99.90
58554;DHT22;48119;53.218;6.576;2022-09-24T04:42:40;15.90;99.90
58554;DHT22;48119;53.218;6.576;2022-09-24T04:45:07;15.90;99.90
58554;DHT22;48119;53.218;6.576;2022-09-24T04:47:35;15.90;99.90
58554;DHT22;48119;53.218;6.576;2022-09-24T04:50:01;15.90;99.90
58554;DHT22;48119;53.218;6.576;2022-09-24T04:52:31;15.90;99.90
58554;DHT22;48119;53.218;6.576;2022-09-24T04:55:01;15.90;99.90
58554;DHT22;48119;53.218;6.576;2022-09-24T04:57:28;15.90;99.90
58554;DHT22;48119;53.218;6.576;2022-09-24T04:59:59;15.90;99.90
58554;DHT22;48119;53.218;6.576;2022-09-24T05:02:25;15.90;99.90
58554;DHT22;48119;53.218;6.576;2022-09-24T05:04:50;15.90;99.90
58554;DHT22;48119;53.218;6.576;2022-09-24T05:07:16;15.90;99.90
58554;DHT22;48119;53.218;6.576;2022-09-24T05:09:42;15.90;99.90
58554;DHT22;48119;53.218;6.576;2022-09-24T05:12:08;15.90;99.90
58554;DHT22;48119;53.218;6.576;2022-09-24T05:14:33;15.90;99.90
58554;DHT22;48119;53.218;6.576;2022-09-24T05:16:59;15.90;99.90
58554;DHT22;48119;53.218;6.576;2022-09-24T05:19:25;15.90;99.90
58554;DHT22;48119;53.218;6.576;2022-09-24T05:21:50;15.90;99.90
58554;DHT22;48119;53.218;6.576;2022-09-24T05:24:17;15.80;99.90
58554;DHT22;48119;53.218;6.576;2022-09-24T05:26:45;15.80;99.80
58554;DHT22;48119;53.218;6.576;2022-09-24T05:29:30;15.90;99.80
58554;DHT22;48119;53.218;6.576;2022-09-24T05:31:55;15.80;99.70
58554;DHT22;48119;53.218;6.576;2022-09-24T05:34:21;15.90;99.70
58554;DHT22;48119;53.218;6.576;2022-09-24T05:36:47;15.90;99.70
58554;DHT22;48119;53.218;6.576;2022-09-24T05:39:12;15.80;99.60
58554;DHT22;48119;53.218;6.576;2022-09-24T05:41:39;15.90;99.70
58554;DHT22;48119;53.218;6.576;2022-09-24T05:44:05;15.80;99.70
58554;DHT22;48119;53.218;6.576;2022-09-24T05:46:31;15.80;99.60
58554;DHT22;48119;53.218;6.576;2022-09-24T05:48:58;15.80;99.60
58554;DHT22;48119;53.218;6.576;2022-09-24T05:51:24;15.80;99.60
58554;DHT22;48119;53.218;6.576;2022-09-24T05:53:49;15.80;99.60
58554;DHT22;48119;53.218;6.576;2022-09-24T05:56:16;15.80;99.60
58554;DHT22;48119;53.218;6.576;2022-09-24T05:58:41;15.80;99.60
58554;DHT22;48119;53.218;6.576;2022-09-24T06:01:07;15.80;99.60
58554;DHT22;48119;53.218;6.576;2022-09-24T06:03:33;15.80;99.60
58554;DHT22;48119;53.218;6.576;2022-09-24T06:05:59;15.80;99.60
58554;DHT22;48119;53.218;6.576;2022-09-24T06:08:27;15.80;99.60
58554;DHT22;48119;53.218;6.576;2022-09-24T06:10:58;15.80;99.60
58554;DHT22;48119;53.218;6.576;2022-09-24T06:13:24;15.80;99.60
58554;DHT22;48119;53.218;6.576;2022-09-24T06:15:50;15.80;99.60
58554;DHT22;48119;53.218;6.576;2022-09-24T06:18:16;15.80;99.60
58554;DHT22;48119;53.218;6.576;2022-09-24T06:20:41;15.80;99.60
58554;DHT22;48119;53.218;6.576;2022-09-24T06:23:07;15.90;99.60
58554;DHT22;48119;53.218;6.576;2022-09-24T06:25:33;15.80;99.50
58554;DHT22;48119;53.218;6.576;2022-09-24T06:28:01;15.90;99.50
58554;DHT22;48119;53.218;6.576;2022-09-24T06:30:29;15.80;99.40
58554;DHT22;48119;53.218;6.576;2022-09-24T06:33:01;15.90;99.60
58554;DHT22;48119;53.218;6.576;2022-09-24T06:35:30;15.90;99.50
58554;DHT22;48119;53.218;6.576;2022-09-24T06:37:56;15.90;99.50
58554;DHT22;48119;53.218;6.576;2022-09-24T06:40:21;15.90;99.40
58554;DHT22;48119;53.218;6.576;2022-09-24T06:42:51;15.90;99.70
58554;DHT22;48119;53.218;6.576;2022-09-24T06:45:17;15.90;99.40
58554;DHT22;48119;53.218;6.576;2022-09-24T06:47:43;15.90;99.30
58554;DHT22;48119;53.218;6.576;2022-09-24T06:50:10;15.90;99.30
58554;DHT22;48119;53.218;6.576;2022-09-24T06:52:35;15.90;99.20
58554;DHT22;48119;53.218;6.576;2022-09-24T06:55:01;15.90;99.20
58554;DHT22;48119;53.218;6.576;2022-09-24T06:57:27;15.90;99.20
58554;DHT22;48119;53.218;6.576;2022-09-24T06:59:52;15.90;99.10
58554;DHT22;48119;53.218;6.576;2022-09-24T07:02:18;15.90;99.10
58554;DHT22;48119;53.218;6.576;2022-09-24T07:04:44;15.90;99.10
58554;DHT22;48119;53.218;6.576;2022-09-24T07:07:10;15.90;99.10
58554;DHT22;48119;53.218;6.576;2022-09-24T07:09:57;15.90;99.10
58554;DHT22;48119;53.218;6.576;2022-09-24T07:12:24;15.90;99.10
58554;DHT22;48119;53.218;6.576;2022-09-24T07:14:49;15.80;99.00
58554;DHT22;48119;53.218;6.576;2022-09-24T07:17:15;15.90;99.00
58554;DHT22;48119;53.218;6.576;2022-09-24T07:19:41;15.90;99.00
58554;DHT22;48119;53.218;6.576;2022-09-24T07:22:07;15.90;99.00
58554;DHT22;48119;53.218;6.576;2022-09-24T07:24:33;15.90;98.90
58554;DHT22;48119;53.218;6.576;2022-09-24T07:26:59;15.90;98.90
58554;DHT22;48119;53.218;6.576;2022-09-24T07:29:25;15.90;98.90
58554;DHT22;48119;53.218;6.576;2022-09-24T07:31:50;15.90;98.80
58554;DHT22;48119;53.218;6.576;2022-09-24T07:34:19;15.90;98.90
58554;DHT22;48119;53.218;6.576;2022-09-24T07:36:54;15.90;98.90
58554;DHT22;48119;53.218;6.576;2022-09-24T07:39:21;15.90;98.70
58554;DHT22;48119;53.218;6.576;2022-09-24T07:41:47;15.90;98.60
58554;DHT22;48119;53.218;6.576;2022-09-24T07:44:13;15.90;98.40
58554;DHT22;48119;53.218;6.576;2022-09-24T07:46:39;15.90;98.40
58554;DHT22;48119;53.218;6.576;2022-09-24T07:49:04;15.90;98.40
58554;DHT22;48119;53.218;6.576;2022-09-24T07:51:30;15.90;98.40
58554;DHT22;48119;53.218;6.576;2022-09-24T07:53:56;15.90;98.20
58554;DHT22;48119;53.218;6.576;2022-09-24T07:56:23;15.80;98.10
58554;DHT22;48119;53.218;6.576;2022-09-24T07:58:50;15.80;98.00
58554;DHT22;48119;53.218;6.576;2022-09-24T08:01:17;15.90;98.00
58554;DHT22;48119;53.218;6.576;2022-09-24T08:03:44;15.80;98.00
58554;DHT22;48119;53.218;6.576;2022-09-24T08:06:11;15.80;98.00
58554;DHT22;48119;53.218;6.576;2022-09-24T08:08:37;15.90;98.00
58554;DHT22;48119;53.218;6.576;2022-09-24T08:11:09;15.80;98.00
58554;DHT22;48119;53.218;6.576;2022-09-24T08:13:35;15.80;98.00
58554;DHT22;48119;53.218;6.576;2022-09-24T08:16:02;15.80;98.00
58554;DHT22;48119;53.218;6.576;2022-09-24T08:18:29;15.80;98.10
58554;DHT22;48119;53.218;6.576;2022-09-24T08:20:56;15.80;98.10
58554;DHT22;48119;53.218;6.576;2022-09-24T08:23:22;15.80;98.30
58554;DHT22;48119;53.218;6.576;2022-09-24T08:25:48;15.90;98.30
58554;DHT22;48119;53.218;6.576;2022-09-24T08:28:14;15.90;98.30
58554;DHT22;48119;53.218;6.576;2022-09-24T08:30:44;15.90;98.30
58554;DHT22;48119;53.218;6.576;2022-09-24T08:33:10;15.90;98.70
58554;DHT22;48119;53.218;6.576;2022-09-24T08:35:36;15.90;98.40
58554;DHT22;48119;53.218;6.576;2022-09-24T08:38:04;16.00;98.50
58554;DHT22;48119;53.218;6.576;2022-09-24T08:40:35;15.90;98.50
58554;DHT22;48119;53.218;6.576;2022-09-24T08:45:43;16.00;98.50
58554;DHT22;48119;53.218;6.576;2022-09-24T08:48:32;15.90;98.40
58554;DHT22;48119;53.218;6.576;2022-09-24T08:51:03;16.00;98.30
58554;DHT22;48119;53.218;6.576;2022-09-24T08:54:08;15.90;98.20
58554;DHT22;48119;53.218;6.576;2022-09-24T08:56:41;16.00;98.10
58554;DHT22;48119;53.218;6.576;2022-09-24T08:59:42;15.90;98.10
58554;DHT22;48119;53.218;6.576;2022-09-24T09:10:26;16.00;97.80
58554;DHT22;48119;53.218;6.576;2022-09-24T09:13:20;16.00;97.90
58554;DHT22;48119;53.218;6.576;2022-09-24T09:15:53;16.00;97.90
58554;DHT22;48119;53.218;6.576;2022-09-24T09:18:55;16.00;97.90
58554;DHT22;48119;53.218;6.576;2022-09-24T09:21:17;16.00;97.80
58554;DHT22;48119;53.218;6.576;2022-09-24T09:23:51;16.10;97.80
58554;DHT22;48119;53.218;6.576;2022-09-24T09:26:18;16.00;97.70
58554;DHT22;48119;53.218;6.576;2022-09-24T09:28:48;16.00;97.70
58554;DHT22;48119;53.218;6.576;2022-09-24T09:37:19;16.00;97.70
58554;DHT22;48119;53.218;6.576;2022-09-24T09:40:00;16.00;97.70
58554;DHT22;48119;53.218;6.576;2022-09-24T09:42:30;16.00;97.70
58554;DHT22;48119;53.218;6.576;2022-09-24T09:45:06;16.00;97.80
58554;DHT22;48119;53.218;6.576;2022-09-24T09:47:43;16.00;97.80
58554;DHT22;48119;53.218;6.576;2022-09-24T09:52:41;16.00;97.50
58554;DHT22;48119;53.218;6.576;2022-09-24T09:55:22;15.90;97.50
58554;DHT22;48119;53.218;6.576;2022-09-24T09:57:49;15.90;97.30
58554;DHT22;48119;53.218;6.576;2022-09-24T10:00:36;16.00;97.30
58554;DHT22;48119;53.218;6.576;2022-09-24T10:03:02;16.00;97.20
58554;DHT22;48119;53.218;6.576;2022-09-24T10:05:28;15.90;97.00
58554;DHT22;48119;53.218;6.576;2022-09-24T10:07:55;16.00;97.30
58554;DHT22;48119;53.218;6.576;2022-09-24T10:10:28;15.90;97.20
58554;DHT22;48119;53.218;6.576;2022-09-24T10:13:06;16.00;97.20
58554;DHT22;48119;53.218;6.576;2022-09-24T10:15:33;16.00;97.10
58554;DHT22;48119;53.218;6.576;2022-09-24T10:18:03;16.00;97.20
58554;DHT22;48119;53.218;6.576;2022-09-24T10:20:33;16.00;97.20
58554;DHT22;48119;53.218;6.576;2022-09-24T10:23:05;16.10;97.30
58554;DHT22;48119;53.218;6.576;2022-09-24T10:25:31;16.10;97.30
58554;DHT22;48119;53.218;6.576;2022-09-24T10:28:00;16.10;97.30
58554;DHT22;48119;53.218;6.576;2022-09-24T10:30:59;16.10;97.30
58554;DHT22;48119;53.218;6.576;2022-09-24T10:33:26;16.00;97.30
58554;DHT22;48119;53.218;6.576;2022-09-24T10:36:03;16.10;97.40
58554;DHT22;48119;53.218;6.576;2022-09-24T10:38:32;16.10;97.30
58554;DHT22;48119;53.218;6.576;2022-09-24T10:40:58;16.10;97.30
58554;DHT22;48119;53.218;6.576;2022-09-24T10:43:24;16.10;97.20
58554;DHT22;48119;53.218;6.576;2022-09-24T10:46:21;16.10;97.50
58554;DHT22;48119;53.218;6.576;2022-09-24T10:52:54;16.10;97.20
58554;DHT22;48119;53.218;6.576;2022-09-24T10:57:36;16.10;97.10
58554;DHT22;48119;53.218;6.576;2022-09-24T11:03:08;16.20;97.10
58554;DHT22;48119;53.218;6.576;2022-09-24T11:05:40;16.10;96.80
58554;DHT22;48119;53.218;6.576;2022-09-24T11:19:32;16.20;96.80
58554;DHT22;48119;53.218;6.576;2022-09-24T11:22:13;16.10;96.80
58554;DHT22;48119;53.218;6.576;2022-09-24T11:24:56;16.20;96.80
58554;DHT22;48119;53.218;6.576;2022-09-24T11:30:11;16.20;96.80
58554;DHT22;48119;53.218;6.576;2022-09-24T11:33:02;16.20;96.90
58554;DHT22;48119;53.218;6.576;2022-09-24T11:38:09;16.20;97.20
58554;DHT22;48119;53.218;6.576;2022-09-24T11:40:58;16.20;97.80
58554;DHT22;48119;53.218;6.576;2022-09-24T11:51:25;16.20;97.50
58554;DHT22;48119;53.218;6.576;2022-09-24T11:54:05;16.20;97.30
58554;DHT22;48119;53.218;6.576;2022-09-24T11:56:39;16.10;97.20
58554;DHT22;48119;53.218;6.576;2022-09-24T12:01:59;16.10;97.20
58554;DHT22;48119;53.218;6.576;2022-09-24T12:07:25;16.20;96.90
58554;DHT22;48119;53.218;6.576;2022-09-24T12:10:27;16.10;96.90
58554;DHT22;48119;53.218;6.576;2022-09-24T12:16:04;16.10;96.80
58554;DHT22;48119;53.218;6.576;2022-09-24T12:18:42;16.10;96.70
58554;DHT22;48119;53.218;6.576;2022-09-24T12:21:13;16.10;96.70
58554;DHT22;48119;53.218;6.576;2022-09-24T12:23:42;16.10;96.80
58554;DHT22;48119;53.218;6.576;2022-09-24T12:26:16;16.10;96.80
58554;DHT22;48119;53.218;6.576;2022-09-24T12:28:58;16.10;96.80
58554;DHT22;48119;53.218;6.576;2022-09-24T12:31:50;16.10;97.00
58554;DHT22;48119;53.218;6.576;2022-09-24T12:37:29;16.10;96.80
58554;DHT22;48119;53.218;6.576;2022-09-24T12:43:09;16.10;96.80
58554;DHT22;48119;53.218;6.576;2022-09-24T12:45:38;16.20;96.90
58554;DHT22;48119;53.218;6.576;2022-09-24T12:48:03;16.10;96.80
58554;DHT22;48119;53.218;6.576;2022-09-24T12:50:36;16.10;96.70
58554;DHT22;48119;53.218;6.576;2022-09-24T12:53:19;16.10;97.00
58554;DHT22;48119;53.218;6.576;2022-09-24T12:55:49;16.20;96.70
58554;DHT22;48119;53.218;6.576;2022-09-24T12:58:44;16.10;96.70
58554;DHT22;48119;53.218;6.576;2022-09-24T13:06:43;16.10;96.50
58554;DHT22;48119;53.218;6.576;2022-09-24T13:09:40;16.00;96.50
58554;DHT22;48119;53.218;6.576;2022-09-24T13:14:47;16.00;96.40
58554;DHT22;48119;53.218;6.576;2022-09-24T13:17:15;16.00;96.50
58554;DHT22;48119;53.218;6.576;2022-09-24T13:19:43;16.00;96.50
58554;DHT22;48119;53.218;6.576;2022-09-24T13:22:29;15.90;96.60
58554;DHT22;48119;53.218;6.576;2022-09-24T13:27:37;16.00;96.70
58554;DHT22;48119;53.218;6.576;2022-09-24T13:32:40;16.00;97.00
58554;DHT22;48119;53.218;6.576;2022-09-24T13:35:17;16.00;97.20
58554;DHT22;48119;53.218;6.576;2022-09-24T13:37:50;15.90;97.10
58554;DHT22;48119;53.218;6.576;2022-09-24T13:40:20;16.00;97.20
58554;DHT22;48119;53.218;6.576;2022-09-24T13:45:30;16.00;97.20
58554;DHT22;48119;53.218;6.576;2022-09-24T13:48:02;16.00;97.20
58554;DHT22;48119;53.218;6.576;2022-09-24T13:50:37;16.00;97.30
58554;DHT22;48119;53.218;6.576;2022-09-24T13:53:15;16.00;97.30
58554;DHT22;48119;53.218;6.576;2022-09-24T13:56:20;16.10;97.40
58554;DHT22;48119;53.218;6.576;2022-09-24T13:58:40;16.00;97.30
58554;DHT22;48119;53.218;6.576;2022-09-24T14:01:22;16.00;97.30
58554;DHT22;48119;53.218;6.576;2022-09-24T14:04:16;16.00;97.30
58554;DHT22;48119;53.218;6.576;2022-09-24T14:06:54;16.00;97.40
58554;DHT22;48119;53.218;6.576;2022-09-24T14:11:57;16.10;97.40
58554;DHT22;48119;53.218;6.576;2022-09-24T14:14:33;16.10;97.40
58554;DHT22;48119;53.218;6.576;2022-09-24T14:17:07;16.00;97.30
58554;DHT22;48119;53.218;6.576;2022-09-24T14:19:34;16.10;97.20
58554;DHT22;48119;53.218;6.576;2022-09-24T14:22:01;16.00;97.20
58554;DHT22;48119;53.218;6.576;2022-09-24T14:24:44;16.00;97.10
58554;DHT22;48119;53.218;6.576;2022-09-24T14:27:15;16.10;97.20
58554;DHT22;48119;53.218;6.576;2022-09-24T14:30:04;16.00;97.10
58554;DHT22;48119;53.218;6.576;2022-09-24T14:32:38;16.10;97.00
58554;DHT22;48119;53.218;6.576;2022-09-24T14:35:23;16.00;96.90
58554;DHT22;48119;53.218;6.576;2022-09-24T14:38:04;16.00;97.00
58554;DHT22;48119;53.218;6.576;2022-09-24T14:40:45;16.00;96.90
58554;DHT22;48119;53.218;6.576;2022-09-24T14:46:23;16.10;96.90
58554;DHT22;48119;53.218;6.576;2022-09-24T14:48:51;16.00;97.10
58554;DHT22;48119;53.218;6.576;2022-09-24T14:51:26;16.00;97.10
58554;DHT22;48119;53.218;6.576;2022-09-24T14:54:01;16.00;97.00
58554;DHT22;48119;53.218;6.576;2022-09-24T14:56:33;16.00;97.10
58554;DHT22;48119;53.218;6.576;2022-09-24T14:59:13;16.00;97.30
58554;DHT22;48119;53.218;6.576;2022-09-24T15:01:41;16.00;97.40
58554;DHT22;48119;53.218;6.576;2022-09-24T15:04:17;16.00;97.50
58554;DHT22;48119;53.218;6.576;2022-09-24T15:06:46;16.00;97.60
58554;DHT22;48119;53.218;6.576;2022-09-24T15:11:44;15.90;97.50
58554;DHT22;48119;53.218;6.576;2022-09-24T15:16:42;15.90;97.80
58554;DHT22;48119;53.218;6.576;2022-09-24T15:19:12;15.80;97.90
58554;DHT22;48119;53.218;6.576;2022-09-24T15:21:38;15.80;97.90
58554;DHT22;48119;53.218;6.576;2022-09-24T15:24:04;15.90;98.00
58554;DHT22;48119;53.218;6.576;2022-09-24T15:26:32;15.80;97.90
58554;DHT22;48119;53.218;6.576;2022-09-24T15:29:04;15.80;98.00
58554;DHT22;48119;53.218;6.576;2022-09-24T15:31:31;15.90;98.00
58554;DHT22;48119;53.218;6.576;2022-09-24T15:33:57;15.90;98.10
58554;DHT22;48119;53.218;6.576;2022-09-24T15:36:24;15.90;98.10
58554;DHT22;48119;53.218;6.576;2022-09-24T15:38:51;15.90;98.30
58554;DHT22;48119;53.218;6.576;2022-09-24T15:41:18;15.90;98.40
58554;DHT22;48119;53.218;6.576;2022-09-24T15:43:44;15.90;98.50
58554;DHT22;48119;53.218;6.576;2022-09-24T15:46:10;15.90;98.60
58554;DHT22;48119;53.218;6.576;2022-09-24T15:48:36;15.80;98.60
58554;DHT22;48119;53.218;6.576;2022-09-24T15:51:02;15.80;98.60
58554;DHT22;48119;53.218;6.576;2022-09-24T15:53:29;15.80;98.60
58554;DHT22;48119;53.218;6.576;2022-09-24T15:56:00;15.80;98.60
58554;DHT22;48119;53.218;6.576;2022-09-24T15:58:26;15.80;98.70
58554;DHT22;48119;53.218;6.576;2022-09-24T16:00:52;15.80;98.70
58554;DHT22;48119;53.218;6.576;2022-09-24T16:03:26;15.80;98.70
58554;DHT22;48119;53.218;6.576;2022-09-24T16:05:53;15.80;98.70
58554;DHT22;48119;53.218;6.576;2022-09-24T16:08:20;15.80;98.80
58554;DHT22;48119;53.218;6.576;2022-09-24T16:10:46;15.80;98.80
58554;DHT22;48119;53.218;6.576;2022-09-24T16:13:15;15.80;98.80
58554;DHT22;48119;53.218;6.576;2022-09-24T16:15:44;15.90;98.70
58554;DHT22;48119;53.218;6.576;2022-09-24T16:18:14;15.80;98.60
58554;DHT22;48119;53.218;6.576;2022-09-24T16:20:42;15.80;98.50
58554;DHT22;48119;53.218;6.576;2022-09-24T16:23:14;15.90;98.50
58554;DHT22;48119;53.218;6.576;2022-09-24T16:25:48;15.90;98.40
58554;DHT22;48119;53.218;6.576;2022-09-24T16:28:17;15.90;98.30
58554;DHT22;48119;53.218;6.576;2022-09-24T16:30:43;15.90;98.00
58554;DHT22;48119;53.218;6.576;2022-09-24T16:33:09;15.90;97.70
58554;DHT22;48119;53.218;6.576;2022-09-24T16:35:35;15.90;97.40
58554;DHT22;48119;53.218;6.576;2022-09-24T16:38:03;15.90;97.20
58554;DHT22;48119;53.218;6.576;2022-09-24T16:40:29;15.90;97.00
58554;DHT22;48119;53.218;6.576;2022-09-24T16:42:55;15.90;96.70
58554;DHT22;48119;53.218;6.576;2022-09-24T16:45:21;15.90;96.50
58554;DHT22;48119;53.218;6.576;2022-09-24T16:47:48;15.90;96.30
58554;DHT22;48119;53.218;6.576;2022-09-24T16:50:14;15.90;96.10
58554;DHT22;48119;53.218;6.576;2022-09-24T16:52:40;16.00;96.00
58554;DHT22;48119;53.218;6.576;2022-09-24T16:55:09;15.90;95.90
58554;DHT22;48119;53.218;6.576;2022-09-24T16:57:36;15.90;95.90
58554;DHT22;48119;53.218;6.576;2022-09-24T17:00:07;15.90;96.20
58554;DHT22;48119;53.218;6.576;2022-09-24T17:02:34;15.90;95.80
58554;DHT22;48119;53.218;6.576;2022-09-24T17:05:00;15.90;95.70
58554;DHT22;48119;53.218;6.576;2022-09-24T17:07:29;15.90;95.60
58554;DHT22;48119;53.218;6.576;2022-09-24T17:09:56;15.90;95.50
58554;DHT22;48119;53.218;6.576;2022-09-24T17:12:43;15.90;95.40
58554;DHT22;48119;53.218;6.576;2022-09-24T17:15:10;15.90;95.40
58554;DHT22;48119;53.218;6.576;2022-09-24T17:17:36;15.90;95.30
58554;DHT22;48119;53.218;6.576;2022-09-24T17:20:02;15.80;95.20
58554;DHT22;48119;53.218;6.576;2022-09-24T17:22:29;15.80;95.20
58554;DHT22;48119;53.218;6.576;2022-09-24T17:24:54;15.80;95.20
58554;DHT22;48119;53.218;6.576;2022-09-24T17:27:20;15.80;95.10
58554;DHT22;48119;53.218;6.576;2022-09-24T17:29:46;15.80;94.90
58554;DHT22;48119;53.218;6.576;2022-09-24T17:32:12;15.80;94.90
58554;DHT22;48119;53.218;6.576;2022-09-24T17:34:37;15.80;94.90
58554;DHT22;48119;53.218;6.576;2022-09-24T17:37:03;15.70;94.80